Weather at Kongoni Game Valley Airport

Public forecast

Using degrees Celsius for public forecast. Weather courtesy of forecast.io.

Closest aviation weather report (METAR) to Kongoni Game Valley Airport

Closest report is Nakuru Airport, 33.3 nm (61.6 km) N.

2024/05/28 13:00 (retrieved 25 minutes ago)

HKNK 281300Z 06005KT 9999 FEW029 28/11

Closest aviation forecast (TAF) to Kongoni Game Valley Airport

Closest forecast is Nairobi Wilson Airport, 44.0 nm (81.5 km) SE.

2024/05/28 12:33 (retrieved 52 minutes ago)

TAF HKNW 281100Z 2812/2912 16010KT 9999 BKN020 BECMG 2817/2820 03005KT -RA BKN016 BKN080 BECMG 2908/2911 16010KT NSW SCT020